Time;durP1;ratioP1;P1;durP2;ratioP2;P2;SDS_P1;SDS_P2;PMS_P1;PMS_P2;Temp;Humidity;BMP_temperature;BMP_pressure;BME280_temperature;BME280_humidity;BME280_pressure;Samples;Min_cycle;Max_cycle;Signal;HPM_P1;HPM_P2
2023/09/05 00:00:01;;;;;;;7.28;4.53;;;;;;;17.34;68.66;102160.59;15550346;28;20141;-48
2023/09/05 00:07:40;;;;;;;5.80;4.97;;;;;;;17.14;68.90;102162.66;15548939;28;20049;-49
2023/09/05 00:15:15;;;;;;;6.60;4.90;;;;;;;17.51;67.28;102155.47;15547219;28;20463;-48
2023/09/05 00:22:49;;;;;;;10.48;4.90;;;;;;;17.39;68.15;102159.94;15547492;28;20136;-46
2023/09/05 00:30:22;;;;;;;7.95;5.05;;;;;;;17.15;68.58;102150.72;15531166;28;20100;-45
2023/09/05 00:37:58;;;;;;;5.75;5.10;;;;;;;17.08;68.55;102144.53;15547761;28;20430;-48
2023/09/05 00:45:31;;;;;;;7.55;5.07;;;;;;;17.06;68.70;102143.91;15547996;28;20045;-44
2023/09/05 00:53:05;;;;;;;;;;;;;;;17.05;69.54;102136.81;15546545;28;20062;-51
2023/09/05 01:00:38;;;;;;;6.22;5.18;;;;;;;16.88;69.14;102130.25;15546327;28;19921;-49
2023/09/05 01:08:24;;;;;;;7.00;5.03;;;;;;;16.98;68.81;102128.75;15546386;28;20041;-46
2023/09/05 01:15:57;;;;;;;6.15;5.10;;;;;;;16.86;69.01;102110.66;15524882;28;20558;-48
2023/09/05 01:23:39;;;;;;;7.50;5.10;;;;;;;16.85;69.51;102104.41;15550705;28;20050;-51
2023/09/05 01:31:15;;;;;;;9.82;5.68;;;;;;;16.92;69.08;102105.19;15541137;28;20042;-50
2023/09/05 01:38:48;;;;;;;9.52;6.65;;;;;;;17.07;68.73;102100.31;15540852;28;20080;-47
2023/09/05 01:46:22;;;;;;;;;;;;;;;16.95;68.93;102095.78;15556960;28;20384;-50
2023/09/05 01:53:55;;;;;;;6.57;5.60;;;;;;;16.77;69.44;102094.66;15555918;28;19952;-46
2023/09/05 02:01:30;;;;;;;7.85;6.00;;;;;;;16.69;69.34;102096.75;15555858;28;20054;-46
2023/09/05 02:09:03;;;;;;;7.82;6.00;;;;;;;16.73;69.63;102088.00;15555153;28;20050;-46
2023/09/05 02:16:39;;;;;;;8.32;6.28;;;;;;;16.79;69.53;102084.44;15555268;28;20452;-47
2023/09/05 02:24:12;;;;;;;8.75;6.97;;;;;;;16.71;69.25;102064.84;15477749;28;20406;-48
2023/09/05 02:31:46;;;;;;;8.45;6.78;;;;;;;17.02;68.93;102072.16;15533891;28;20100;-47
2023/09/05 02:39:20;;;;;;;8.48;6.15;;;;;;;17.12;68.35;102049.97;15553288;28;20064;-44
2023/09/05 02:46:57;;;;;;;6.20;5.60;;;;;;;17.03;68.15;102049.41;15551997;28;20096;-47
2023/09/05 02:54:31;;;;;;;7.00;5.85;;;;;;;16.70;69.25;102050.47;15535979;28;20543;-44
2023/09/05 03:02:05;;;;;;;8.40;6.55;;;;;;;16.98;68.74;102047.38;15552908;28;20404;-44
2023/09/05 03:09:41;;;;;;;6.50;5.75;;;;;;;17.11;67.98;102048.28;15552803;28;20183;-43
2023/09/05 03:17:16;;;;;;;7.57;5.63;;;;;;;16.93;68.13;102047.22;15551654;28;20042;-45
2023/09/05 03:24:50;;;;;;;8.93;5.90;;;;;;;17.03;68.10;102055.66;15550613;28;20493;-56
2023/09/05 03:32:24;;;;;;;8.98;6.10;;;;;;;16.90;68.67;102044.91;15550519;28;20410;-46
2023/09/05 03:39:57;;;;;;;9.15;6.07;;;;;;;16.61;69.60;102049.06;15549805;28;20042;-46
2023/09/05 03:47:32;;;;;;;9.05;6.47;;;;;;;16.51;70.08;102041.41;15549351;28;20132;-54
2023/09/05 03:55:06;;;;;;;8.90;6.63;;;;;;;16.67;69.50;102050.06;15549378;28;20084;-52
2023/09/05 04:02:42;;;;;;;7.22;6.47;;;;;;;16.80;69.08;102056.25;15532662;28;20518;-52
2023/09/05 04:10:15;;;;;;;8.18;6.25;;;;;;;17.19;67.75;102056.16;15531459;28;20053;-50
2023/09/05 04:17:56;;;;;;;8.65;6.03;;;;;;;16.98;68.28;102068.25;15532202;28;20100;-52
2023/09/05 04:25:29;;;;;;;9.35;6.13;;;;;;;16.84;68.53;102078.34;15549109;28;20044;-50
2023/09/05 04:33:06;;;;;;;7.68;6.07;;;;;;;16.53;69.44;102084.56;15532378;28;20053;-50
2023/09/05 04:41:01;;;;;;;10.45;6.60;;;;;;;16.65;68.43;102079.28;15546750;28;20386;-50
2023/09/05 04:48:37;;;;;;;10.95;6.40;;;;;;;16.34;69.70;102094.44;15540370;28;20116;-55
2023/09/05 04:56:13;;;;;;;8.70;6.70;;;;;;;16.30;70.37;102093.22;15550566;28;20479;-50
2023/09/05 05:03:47;;;;;;;7.40;6.60;;;;;;;16.58;69.62;102096.41;15558502;28;20068;-52
2023/09/05 05:11:20;;;;;;;10.68;7.15;;;;;;;16.90;69.08;102103.75;15557821;28;20165;-47
2023/09/05 05:18:54;;;;;;;7.38;6.47;;;;;;;16.95;69.37;102095.78;15558382;28;20045;-50
2023/09/05 05:26:28;;;;;;;11.25;6.95;;;;;;;16.93;69.48;102096.03;15592102;28;20112;-49
2023/09/05 05:34:04;;;;;;;9.38;6.60;;;;;;;17.02;69.23;102085.72;15589923;28;20061;-52
2023/09/05 05:41:38;;;;;;;9.23;6.50;;;;;;;17.29;68.38;102072.75;15559498;28;20046;-49
2023/09/05 05:49:12;;;;;;;;;;;;;;;17.41;69.03;102068.28;15561563;28;20492;-51
2023/09/05 05:56:45;;;;;;;9.32;6.50;;;;;;;18.01;67.84;102063.06;15556996;28;19928;-54
2023/09/05 06:04:26;;;;;;;9.38;4.97;;;;;;;18.15;65.31;102061.03;15556996;28;20450;-50
2023/09/05 06:12:00;;;;;;;6.45;4.25;;;;;;;18.49;63.71;102064.13;15554420;28;20046;-56
2023/09/05 06:19:34;;;;;;;6.35;4.00;;;;;;;18.94;62.54;102055.56;15556064;28;20053;-55
2023/09/05 06:27:07;;;;;;;5.82;4.10;;;;;;;19.15;61.57;102054.16;15555557;28;20112;-53
2023/09/05 06:34:42;;;;;;;6.53;3.95;;;;;;;19.26;61.35;102059.59;15554807;28;20637;-50
2023/09/05 06:42:16;;;;;;;7.78;3.30;;;;;;;19.88;60.27;102059.94;15552830;28;20134;-50
2023/09/05 06:49:51;;;;;;;5.45;3.40;;;;;;;20.36;58.16;102069.63;15553751;28;20153;-51
2023/09/05 06:57:26;;;;;;;4.30;3.58;;;;;;;19.79;58.88;102066.81;15576222;28;20034;-50
2023/09/05 07:05:00;;;;;;;4.57;3.10;;;;;;;20.87;56.55;102061.56;15597058;28;20130;-53
2023/09/05 07:12:36;;;;;;;3.75;3.20;;;;;;;21.60;55.04;102055.09;15594949;28;20050;-53
2023/09/05 07:20:11;;;;;;;3.78;2.92;;;;;;;21.53;53.63;102079.03;15600354;28;20049;-51
2023/09/05 07:27:45;;;;;;;5.45;3.33;;;;;;;22.20;53.73;102083.53;15599957;28;20056;-53
2023/09/05 07:35:19;;;;;;;5.80;2.70;;;;;;;22.38;52.34;102090.53;15597561;28;20041;-55
2023/09/05 07:42:52;;;;;;;5.30;2.80;;;;;;;22.38;51.15;102106.97;15586283;28;20331;-57
2023/09/05 07:50:27;;;;;;;6.10;2.40;;;;;;;22.55;50.83;102104.16;15611843;28;20054;-53
2023/09/05 07:58:00;;;;;;;3.90;2.50;;;;;;;22.59;49.55;102092.44;15610897;28;20073;-53
2023/09/05 08:05:35;;;;;;;3.67;2.53;;;;;;;23.10;49.10;102100.34;15610836;28;20060;-47
2023/09/05 08:13:10;;;;;;;4.00;2.42;;;;;;;23.43;48.00;102080.03;15604889;28;20042;-53
2023/09/05 08:20:44;;;;;;;5.30;2.55;;;;;;;23.28;48.02;102078.03;15610330;28;20067;-52
2023/09/05 08:28:18;;;;;;;3.47;2.10;;;;;;;24.13;46.78;102086.19;15609448;28;20045;-53
2023/09/05 08:35:53;;;;;;;3.13;2.10;;;;;;;24.64;45.81;102080.88;15591110;28;20053;-57
2023/09/05 08:43:27;;;;;;;3.95;2.13;;;;;;;24.71;45.77;102064.94;15608626;28;20041;-53
2023/09/05 08:51:04;;;;;;;4.25;2.10;;;;;;;25.18;43.20;102070.22;15607181;28;20140;-54
2023/09/05 08:58:40;;;;;;;3.15;1.95;;;;;;;25.58;43.53;102056.66;15609056;28;20224;-52
2023/09/05 09:06:15;;;;;;;2.58;1.90;;;;;;;26.15;42.79;102047.91;15609861;28;20453;-50
2023/09/05 09:13:49;;;;;;;3.40;1.73;;;;;;;26.52;40.91;102041.13;15602334;28;20049;-53
2023/09/05 09:21:27;;;;;;;2.63;1.60;;;;;;;26.44;39.50;102048.06;15609007;28;20058;-55
2023/09/05 09:29:02;;;;;;;2.05;1.35;;;;;;;26.35;39.23;102049.75;15609189;28;20521;-51
2023/09/05 09:36:38;;;;;;;1.40;1.30;;;;;;;26.49;41.25;102038.09;15607997;28;20064;-55
2023/09/05 09:44:26;;;;;;;2.42;1.20;;;;;;;26.66;39.38;102027.53;15603660;28;20042;-56
2023/09/05 09:52:04;;;;;;;2.22;1.40;;;;;;;27.15;37.41;102029.34;15638496;22;20056;-52
2023/09/05 09:59:44;;;;;;;2.63;1.30;;;;;;;27.03;39.02;102020.59;15564504;28;20458;-52
2023/09/05 10:07:19;;;;;;;4.30;1.40;;;;;;;27.32;39.07;102001.31;15572111;28;20495;-49
2023/09/05 10:14:56;;;;;;;2.90;1.33;;;;;;;27.33;38.72;101983.66;15574223;28;20129;-49
2023/09/05 10:22:33;;;;;;;2.78;1.50;;;;;;;27.80;38.10;101980.06;15564332;28;20533;-50
2023/09/05 10:30:10;;;;;;;3.80;1.52;;;;;;;29.20;36.23;101983.91;15559138;28;20045;-49
2023/09/05 10:37:51;;;;;;;4.35;1.52;;;;;;;28.54;36.85;101974.84;15576787;28;20093;-49
2023/09/05 10:45:33;;;;;;;2.67;1.20;;;;;;;29.15;37.18;101964.66;15570448;28;20390;-50
2023/09/05 10:53:23;;;;;;;2.78;1.50;;;;;;;28.06;37.60;101963.97;15563973;28;20064;-51
2023/09/05 11:01:00;;;;;;;3.70;1.33;;;;;;;28.04;37.35;101949.66;15570687;28;20462;-49
2023/09/05 11:08:34;;;;;;;2.38;1.60;;;;;;;29.33;36.22;101946.31;15563500;28;20117;-48
2023/09/05 11:16:07;;;;;;;4.22;1.48;;;;;;;28.79;36.37;101940.41;15556551;28;20038;-48
2023/09/05 11:23:51;;;;;;;4.55;1.50;;;;;;;30.35;34.75;101930.22;15580227;28;20045;-48
2023/09/05 11:31:25;;;;;;;2.33;1.30;;;;;;;29.72;34.60;101920.88;15574899;28;20056;-50
2023/09/05 11:38:59;;;;;;;2.67;1.05;;;;;;;30.25;32.90;101934.06;15571844;28;20053;-47
2023/09/05 11:46:34;;;;;;;4.57;1.20;;;;;;;29.91;33.87;101923.50;15555612;28;20432;-50
2023/09/05 11:54:09;;;;;;;3.10;1.20;;;;;;;29.23;34.81;101923.25;15533904;28;20045;-49
2023/09/05 12:01:42;;;;;;;3.22;1.20;;;;;;;29.04;34.58;101916.22;15555253;28;20042;-49
2023/09/05 12:09:17;;;;;;;1.30;1.00;;;;;;;29.19;33.80;101900.16;15563317;28;20409;-47
2023/09/05 12:16:50;;;;;;;1.98;1.10;;;;;;;30.65;32.70;101907.25;15551862;28;20046;-51
2023/09/05 12:24:25;;;;;;;2.13;1.15;;;;;;;30.05;32.12;101898.53;15556407;28;20052;-50
2023/09/05 12:31:58;;;;;;;1.25;0.90;;;;;;;30.92;31.25;101891.59;15554596;28;20224;-49
2023/09/05 12:39:35;;;;;;;2.63;1.00;;;;;;;31.09;32.00;101876.97;15551202;28;20518;-48
2023/09/05 12:47:08;;;;;;;3.55;1.30;;;;;;;31.26;30.72;101857.59;15583712;28;20046;-47
2023/09/05 12:54:44;;;;;;;2.33;1.10;;;;;;;32.10;29.41;101853.56;15552465;28;20546;-51
2023/09/05 13:02:17;;;;;;;4.13;0.90;;;;;;;31.68;31.17;101844.94;15555654;28;20070;-49
2023/09/05 13:09:54;;;;;;;3.58;1.20;;;;;;;32.06;30.49;101841.50;15531920;28;20085;-48
2023/09/05 13:17:27;;;;;;;1.60;1.00;;;;;;;32.36;29.44;101838.78;15552448;28;20042;-48
2023/09/05 13:25:01;;;;;;;3.58;1.17;;;;;;;31.92;30.34;101829.75;15567291;28;20050;-49
2023/09/05 13:32:35;;;;;;;3.50;1.00;;;;;;;33.40;27.52;101825.19;15563971;28;20085;-48
2023/09/05 13:40:10;;;;;;;2.72;1.20;;;;;;;32.97;28.81;101814.38;15562094;28;20062;-47
2023/09/05 13:47:44;;;;;;;1.73;0.98;;;;;;;33.59;28.03;101812.81;15562693;28;20057;-47
2023/09/05 13:55:18;;;;;;;2.40;1.00;;;;;;;31.63;30.18;101797.09;15545025;28;20038;-48
2023/09/05 14:02:51;;;;;;;2.67;1.10;;;;;;;30.96;31.56;101799.13;15562026;28;20041;-48
2023/09/05 14:10:26;;;;;;;4.80;1.27;;;;;;;30.23;33.78;101781.22;15561005;28;20069;-50
2023/09/05 14:17:59;;;;;;;2.80;1.10;;;;;;;29.51;34.04;101773.84;15559373;28;20411;-50
2023/09/05 14:25:34;;;;;;;1.92;1.20;;;;;;;29.48;34.26;101783.59;15561508;28;20042;-51
2023/09/05 14:33:08;;;;;;;2.63;1.30;;;;;;;28.90;34.80;101778.78;15558440;28;20042;-48
2023/09/05 14:40:42;;;;;;;2.97;1.23;;;;;;;28.88;34.96;101774.72;15559096;28;20077;-50
2023/09/05 14:48:18;;;;;;;1.98;1.10;;;;;;;28.85;35.30;101765.06;15545860;28;20089;-50
2023/09/05 14:55:53;;;;;;;4.57;1.40;;;;;;;28.46;35.80;101747.09;15555655;28;20042;-50
2023/09/05 15:03:26;;;;;;;2.33;1.10;;;;;;;28.70;35.67;101751.59;15557961;28;20049;-52
2023/09/05 15:11:00;;;;;;;1.80;1.30;;;;;;;28.10;36.52;101748.88;15558545;28;20049;-52
2023/09/05 15:18:34;;;;;;;1.67;1.30;;;;;;;28.43;35.67;101738.59;15556512;28;20453;-48
2023/09/05 15:26:08;;;;;;;3.42;1.60;;;;;;;28.44;35.84;101745.75;15556347;28;20080;-46
2023/09/05 15:33:41;;;;;;;4.90;1.40;;;;;;;28.67;36.19;101743.91;15559185;28;20056;-49
2023/09/05 15:41:16;;;;;;;3.83;1.60;;;;;;;28.47;36.23;101732.16;15555627;28;20066;-47
2023/09/05 15:48:49;;;;;;;3.13;1.40;;;;;;;28.52;35.69;101745.03;15557441;28;20132;-48
2023/09/05 15:56:26;;;;;;;2.30;1.55;;;;;;;28.34;36.42;101737.66;15556421;28;20404;-48
2023/09/05 16:03:59;;;;;;;2.85;1.30;;;;;;;28.43;36.42;101736.66;15554460;28;20046;-51
2023/09/05 16:11:35;;;;;;;4.35;1.50;;;;;;;28.84;37.01;101730.28;15555301;28;20049;-50
2023/09/05 16:19:08;;;;;;;2.92;1.50;;;;;;;28.76;36.03;101728.25;15554603;28;20515;-52
2023/09/05 16:26:44;;;;;;;2.28;1.52;;;;;;;28.75;35.71;101718.31;15549907;28;20046;-49
2023/09/05 16:34:17;;;;;;;5.78;1.83;;;;;;;28.45;36.77;101726.13;15536302;28;20054;-50
2023/09/05 16:41:51;;;;;;;6.93;2.50;;;;;;;28.36;37.22;101719.69;15561923;28;20038;-48
2023/09/05 16:49:25;;;;;;;2.63;1.70;;;;;;;28.14;37.74;101727.81;15554464;28;20042;-49
2023/09/05 16:57:00;;;;;;;3.00;1.70;;;;;;;27.88;38.32;101710.91;15567338;28;20049;-51
2023/09/05 17:04:34;;;;;;;5.05;3.30;;;;;;;27.91;38.92;101724.09;15564623;28;20070;-50
2023/09/05 17:12:09;;;;;;;3.05;1.50;;;;;;;27.75;39.95;101714.47;15565303;28;20054;-50
2023/09/05 17:19:45;;;;;;;5.70;1.48;;;;;;;27.51;40.14;101709.03;15563122;28;20034;-49
2023/09/05 17:27:20;;;;;;;3.92;1.70;;;;;;;27.32;40.60;101704.34;15562912;28;20060;-49
2023/09/05 17:34:53;;;;;;;4.38;1.35;;;;;;;26.87;42.12;101714.91;15569515;28;20065;-49
2023/09/05 17:42:27;;;;;;;3.67;1.58;;;;;;;27.12;42.37;101738.56;15564329;28;20049;-48
2023/09/05 17:50:01;;;;;;;4.80;1.88;;;;;;;26.89;44.45;101731.97;15562358;28;20049;-51
2023/09/05 17:57:35;;;;;;;6.78;4.65;;;;;;;26.15;44.53;101731.44;15561683;28;20038;-51
2023/09/05 18:05:09;;;;;;;4.90;2.17;;;;;;;25.95;44.79;101728.91;15559979;28;20499;-48
2023/09/05 18:12:46;;;;;;;7.22;2.25;;;;;;;25.51;45.43;101731.69;15561213;28;20058;-52
2023/09/05 18:20:19;;;;;;;2.85;2.00;;;;;;;25.64;45.40;101745.63;15561448;28;20072;-50
2023/09/05 18:27:53;;;;;;;3.33;1.95;;;;;;;24.78;47.18;101744.22;15572993;28;20471;-48
2023/09/05 18:35:27;;;;;;;5.55;2.00;;;;;;;25.04;47.67;101750.41;15577054;28;20050;-50
2023/09/05 18:43:01;;;;;;;5.85;2.08;;;;;;;24.68;47.64;101753.31;15562034;28;20061;-49
2023/09/05 18:50:35;;;;;;;4.82;2.40;;;;;;;24.22;49.64;101766.31;15556801;28;20069;-49
2023/09/05 18:58:11;;;;;;;7.15;2.58;;;;;;;23.86;50.36;101768.25;15543007;28;20042;-47
2023/09/05 19:05:44;;;;;;;4.72;2.33;;;;;;;24.05;49.91;101763.84;15556751;28;20104;-48
2023/09/05 19:13:18;;;;;;;3.10;2.00;;;;;;;23.74;50.39;101773.19;15565684;28;20100;-49
2023/09/05 19:20:54;;;;;;;3.95;2.20;;;;;;;23.87;51.45;101778.94;15574627;28;20045;-49
2023/09/05 19:28:29;;;;;;;4.30;2.33;;;;;;;23.40;51.76;101762.69;15562913;28;20099;-51
2023/09/05 19:36:04;;;;;;;6.22;3.65;;;;;;;23.20;51.82;101773.63;15558731;28;20050;-49
2023/09/05 19:43:40;;;;;;;6.13;2.92;;;;;;;23.70;51.91;101780.31;15559332;28;20426;-51
2023/09/05 19:51:13;;;;;;;4.07;2.60;;;;;;;23.33;52.37;101787.63;15559739;28;20030;-47
2023/09/05 19:58:47;;;;;;;7.65;2.50;;;;;;;22.93;54.33;101793.78;15552269;28;20058;-49
2023/09/05 20:06:20;;;;;;;5.18;2.72;;;;;;;22.83;54.63;101789.06;15557181;28;20133;-47
2023/09/05 20:13:54;;;;;;;3.83;2.97;;;;;;;22.58;55.25;101799.88;15547961;28;20056;-51
2023/09/05 20:21:28;;;;;;;4.45;2.85;;;;;;;22.21;56.36;101795.25;15553642;28;20550;-52
2023/09/05 20:29:03;;;;;;;6.40;3.10;;;;;;;21.83;57.27;101785.38;15551667;28;20563;-44
2023/09/05 20:36:36;;;;;;;7.65;3.20;;;;;;;21.63;57.45;101795.00;15552332;28;20053;-50
2023/09/05 20:44:10;;;;;;;8.40;3.08;;;;;;;;;;15552864;28;20431;-47
2023/09/05 20:51:43;;;;;;;5.25;3.00;;;;;;;21.06;59.14;101800.91;15552843;28;20503;-48
2023/09/05 20:59:18;;;;;;;6.13;3.20;;;;;;;20.88;60.37;101782.94;15552003;28;20490;-46
2023/09/05 21:06:51;;;;;;;4.18;3.22;;;;;;;20.68;61.23;101790.88;15551271;28;20060;-47
2023/09/05 21:14:25;;;;;;;5.18;3.20;;;;;;;20.56;61.62;101788.25;15551772;28;20049;-47
2023/09/05 21:21:59;;;;;;;5.95;3.47;;;;;;;20.27;62.57;101784.78;15550662;28;20132;-46
2023/09/05 21:29:33;;;;;;;5.35;3.60;;;;;;;20.09;62.54;101785.03;15551214;28;20064;-49
2023/09/05 21:37:06;;;;;;;7.05;3.50;;;;;;;19.97;62.92;101787.88;15551837;28;20046;-45
2023/09/05 21:44:42;;;;;;;5.35;4.10;;;;;;;19.90;61.94;101792.63;15562099;28;20045;-48
2023/09/05 21:52:15;;;;;;;10.93;4.07;;;;;;;19.76;62.55;101781.22;15562869;28;20054;-47
2023/09/05 21:59:50;;;;;;;5.20;3.67;;;;;;;19.42;64.00;101787.66;15560748;28;20077;-46
2023/09/05 22:07:23;;;;;;;5.53;3.85;;;;;;;19.23;63.87;101793.31;15562074;28;20046;-46
2023/09/05 22:15:17;;;;;;;9.07;4.00;;;;;;;19.22;64.63;101796.28;15569027;28;20042;-47
2023/09/05 22:23:11;;;;;;;6.53;4.63;;;;;;;19.02;65.25;101808.38;15559790;28;20061;-46
2023/09/05 22:30:46;;;;;;;6.63;5.03;;;;;;;19.16;64.84;101806.22;15559562;28;20530;-48
2023/09/05 22:38:19;;;;;;;6.53;4.70;;;;;;;18.96;65.13;101805.81;15556607;28;20050;-45
2023/09/05 22:45:53;;;;;;;7.20;5.03;;;;;;;18.74;66.12;101808.31;15559378;28;20034;-47
2023/09/05 22:53:27;;;;;;;7.25;4.68;;;;;;;18.68;65.85;101806.53;15558559;28;20054;-47
2023/09/05 23:01:01;;;;;;;7.68;4.55;;;;;;;18.67;65.61;101794.81;15558381;28;20164;-49
2023/09/05 23:08:35;;;;;;;13.15;4.97;;;;;;;18.60;66.47;101791.38;15558241;28;20056;-49
2023/09/05 23:16:09;;;;;;;7.35;4.82;;;;;;;18.48;66.62;101787.88;15556646;28;20415;-47
2023/09/05 23:23:42;;;;;;;6.18;4.47;;;;;;;18.25;67.39;101788.69;15556803;28;20046;-51
2023/09/05 23:31:17;;;;;;;5.97;4.57;;;;;;;18.17;67.37;101770.84;15558241;28;20057;-49
2023/09/05 23:38:50;;;;;;;7.38;5.03;;;;;;;18.13;67.01;101779.69;15556316;28;20045;-49
2023/09/05 23:46:25;;;;;;;8.55;4.82;;;;;;;18.02;67.48;101776.75;15554825;28;20111;-49
2023/09/05 23:53:58;;;;;;;10.25;5.35;;;;;;;17.92;67.64;101770.25;15557133;28;20503;-47
